createdAt,value
2019-01-13T00:02:11.961Z,8.20
2019-01-13T00:04:52.696Z,8.40
2019-01-13T00:07:40.320Z,8.10
2019-01-13T00:10:20.782Z,9.00
2019-01-13T00:13:08.444Z,8.30
2019-01-13T00:15:36.427Z,9.00
2019-01-13T00:18:17.639Z,9.00
2019-01-13T00:20:46.583Z,9.30
2019-01-13T00:23:27.517Z,9.40
2019-01-13T00:26:14.986Z,9.30
2019-01-13T00:28:56.000Z,9.40
2019-01-13T00:31:36.636Z,8.70
2019-01-13T00:34:25.274Z,9.10
2019-01-13T00:37:06.028Z,9.20
2019-01-13T00:39:53.387Z,9.10
2019-01-13T00:42:21.376Z,9.50
2019-01-13T00:44:49.308Z,9.10
2019-01-13T00:47:30.653Z,9.10
2019-01-13T00:49:58.537Z,9.10
2019-01-13T00:52:27.636Z,9.00
2019-01-13T00:54:55.496Z,9.40
2019-01-13T00:57:37.181Z,9.40
2019-01-13T01:00:26.803Z,9.10
2019-01-13T01:03:13.585Z,9.10
2019-01-13T01:06:01.155Z,9.00
2019-01-13T01:08:42.553Z,8.90
2019-01-13T01:11:22.649Z,9.00
2019-01-13T01:14:02.866Z,9.10
2019-01-13T01:16:50.402Z,8.60
2019-01-13T01:19:31.426Z,8.90
2019-01-13T01:22:19.010Z,8.90
2019-01-13T01:25:00.204Z,9.00
2019-01-13T01:27:47.635Z,9.10
2019-01-13T01:30:33.498Z,9.20
2019-01-13T01:33:10.124Z,9.10
2019-01-13T01:35:57.602Z,8.20
2019-01-13T01:38:38.123Z,9.10
2019-01-13T01:41:25.565Z,7.60
2019-01-13T01:44:05.616Z,8.80
2019-01-13T01:46:46.409Z,8.70
2019-01-13T01:49:26.561Z,8.40
2019-01-13T01:52:14.216Z,7.60
2019-01-13T01:54:55.013Z,8.50
2019-01-13T01:57:42.465Z,7.70
2019-01-13T02:00:25.347Z,9.00
2019-01-13T02:03:12.692Z,9.00
2019-01-13T02:05:40.605Z,9.10
2019-01-13T02:08:08.442Z,9.20
2019-01-13T02:10:36.327Z,9.30
2019-01-13T02:13:04.211Z,9.10
2019-01-13T02:15:42.810Z,9.20
2019-01-13T02:18:30.374Z,9.10
2019-01-13T02:21:11.318Z,8.00
2019-01-13T02:23:52.494Z,8.90
2019-01-13T02:26:39.871Z,8.20
2019-01-13T02:29:20.113Z,8.70
2019-01-13T02:32:00.103Z,7.80
2019-01-13T02:34:47.509Z,8.20
2019-01-13T02:37:28.276Z,8.00
2019-01-13T02:40:17.273Z,7.80
2019-01-13T02:43:04.755Z,7.80
2019-01-13T02:45:52.201Z,7.30
2019-01-13T02:48:33.151Z,6.80
2019-01-13T02:51:20.615Z,7.40
2019-01-13T02:54:01.379Z,7.50
2019-01-13T02:56:49.006Z,6.70
2019-01-13T02:59:29.673Z,7.90
2019-01-13T03:02:17.040Z,7.00
2019-01-13T03:05:00.849Z,7.10
2019-01-13T03:07:48.221Z,7.90
2019-01-13T03:10:28.648Z,7.90
2019-01-13T03:13:16.034Z,7.00
2019-01-13T03:15:56.658Z,8.20
2019-01-13T03:18:44.202Z,7.90
2019-01-13T03:21:25.000Z,7.40
2019-01-13T03:24:05.123Z,7.10
2019-01-13T03:26:52.504Z,7.10
2019-01-13T03:29:33.380Z,8.10
2019-01-13T03:32:20.848Z,8.10
2019-01-13T03:35:01.314Z,8.50
2019-01-13T03:37:48.751Z,7.70
2019-01-13T03:40:29.681Z,8.40
2019-01-13T03:43:17.032Z,8.50
2019-01-13T03:45:57.554Z,8.30
2019-01-13T03:48:45.064Z,8.50
2019-01-13T03:51:25.746Z,8.50
2019-01-13T03:54:13.086Z,8.50
2019-01-13T03:56:53.677Z,8.50
2019-01-13T03:59:21.519Z,8.40
2019-01-13T04:02:02.544Z,7.70
2019-01-13T04:04:49.895Z,8.20
2019-01-13T04:07:17.810Z,8.40
2019-01-13T04:09:45.632Z,8.30
2019-01-13T04:12:27.406Z,8.40
2019-01-13T04:15:39.123Z,8.30
2019-01-13T04:18:19.668Z,7.70
2019-01-13T04:20:59.892Z,8.70
2019-01-13T04:23:48.261Z,8.60
2019-01-13T04:26:35.606Z,7.90
2019-01-13T04:29:16.313Z,8.60
2019-01-13T04:31:44.184Z,8.60
2019-01-13T04:34:12.025Z,8.60
2019-01-13T04:36:59.468Z,8.00
2019-01-13T04:39:40.241Z,8.70
2019-01-13T04:42:27.682Z,8.70
2019-01-13T04:45:07.843Z,8.60
2019-01-13T04:47:55.262Z,8.50
2019-01-13T04:50:36.014Z,8.50
2019-01-13T04:53:23.535Z,8.20
2019-01-13T04:56:03.928Z,9.10
2019-01-13T04:58:51.227Z,7.80
2019-01-13T05:01:34.529Z,9.00
2019-01-13T05:04:20.563Z,8.80
2019-01-13T05:06:59.092Z,8.50
2019-01-13T05:09:46.479Z,8.60
2019-01-13T05:12:27.873Z,7.50
2019-01-13T05:15:15.294Z,8.70
2019-01-13T05:17:57.931Z,8.60
2019-01-13T05:20:45.265Z,8.60
2019-01-13T05:23:26.202Z,8.60
2019-01-13T05:26:13.579Z,7.80
2019-01-13T05:28:54.607Z,9.00
2019-01-13T05:31:42.159Z,8.80
2019-01-13T05:34:27.613Z,8.70
2019-01-13T05:37:07.719Z,8.10
2019-01-13T05:39:55.108Z,8.70
2019-01-13T05:42:35.685Z,8.90
2019-01-13T05:45:23.182Z,9.00
2019-01-13T05:48:03.648Z,9.10
2019-01-13T05:50:51.113Z,8.80
2019-01-13T05:53:38.462Z,9.20
2019-01-13T05:56:18.620Z,8.80
2019-01-13T05:59:06.011Z,8.70
2019-01-13T06:01:49.291Z,8.60
2019-01-13T06:04:36.033Z,7.80
2019-01-13T06:07:16.911Z,8.60
2019-01-13T06:10:05.535Z,8.40
2019-01-13T06:12:46.273Z,7.40
2019-01-13T06:15:33.771Z,8.70
2019-01-13T06:18:14.581Z,7.50
2019-01-13T06:21:01.935Z,8.50
2019-01-13T06:23:42.939Z,8.40
2019-01-13T06:26:30.246Z,8.70
2019-01-13T06:29:10.798Z,8.80
2019-01-13T06:31:58.145Z,8.80
2019-01-13T06:34:38.997Z,8.30
2019-01-13T06:37:26.412Z,8.70
2019-01-13T06:40:08.352Z,8.50
2019-01-13T06:42:55.750Z,8.70
2019-01-13T06:45:36.009Z,8.00
2019-01-13T06:48:23.434Z,7.70
2019-01-13T06:51:04.184Z,8.70
2019-01-13T06:53:51.596Z,8.60
2019-01-13T06:56:33.223Z,8.60
2019-01-13T06:59:20.619Z,8.70
2019-01-13T07:01:48.533Z,8.90
2019-01-13T07:04:16.452Z,8.60
2019-01-13T07:06:44.329Z,8.50
2019-01-13T07:09:12.137Z,8.50
2019-01-13T07:11:52.286Z,8.50
2019-01-13T07:14:32.457Z,8.60
2019-01-13T07:17:12.556Z,7.80
2019-01-13T07:19:59.973Z,8.60
2019-01-13T07:22:40.793Z,8.60
2019-01-13T07:25:28.112Z,7.60
2019-01-13T07:28:09.122Z,8.00
2019-01-13T07:30:56.551Z,8.50
2019-01-13T07:33:24.460Z,8.40
2019-01-13T07:35:52.437Z,8.50
2019-01-13T07:38:32.864Z,7.30
2019-01-13T07:41:01.136Z,8.40
2019-01-13T07:43:43.177Z,8.50
2019-01-13T07:46:30.695Z,7.70
2019-01-13T07:49:11.567Z,7.80
2019-01-13T07:51:52.740Z,8.40
2019-01-13T07:54:33.499Z,8.50
2019-01-13T07:57:21.039Z,8.00
2019-01-13T08:00:03.503Z,8.40
2019-01-13T08:02:45.439Z,8.50
2019-01-13T08:05:13.258Z,8.50
2019-01-13T08:08:00.864Z,8.50
2019-01-13T08:10:28.917Z,8.60
2019-01-13T08:12:56.883Z,8.60
2019-01-13T08:15:24.828Z,8.60
2019-01-13T08:18:12.358Z,8.30
2019-01-13T08:20:55.211Z,8.50
2019-01-13T08:23:42.750Z,8.70
2019-01-13T08:26:10.745Z,8.70
2019-01-13T08:28:58.565Z,8.70
2019-01-13T08:31:39.485Z,8.10
2019-01-13T08:34:07.504Z,8.70
2019-01-13T08:36:49.009Z,8.70
2019-01-13T08:39:36.679Z,8.90
2019-01-13T08:42:17.630Z,9.00
2019-01-13T08:45:05.935Z,8.70
2019-01-13T08:47:47.853Z,8.70
2019-01-13T08:50:35.268Z,8.50
2019-01-13T08:53:15.461Z,8.50
2019-01-13T08:56:03.756Z,8.40
2019-01-13T08:58:45.347Z,7.90
2019-01-13T09:01:32.945Z,8.80
2019-01-13T09:04:13.488Z,8.90
2019-01-13T09:06:41.438Z,8.80
2019-01-13T09:09:09.803Z,8.70
2019-01-13T09:11:37.789Z,8.70
2019-01-13T09:14:05.836Z,8.80
2019-01-13T09:16:34.405Z,8.50
2019-01-13T09:19:02.306Z,8.80
2019-01-13T09:21:49.933Z,7.90
2019-01-13T09:24:30.575Z,8.40
2019-01-13T09:27:18.252Z,8.70
2019-01-13T09:29:58.460Z,9.00
2019-01-13T09:32:45.972Z,8.90
2019-01-13T09:35:27.048Z,9.10
2019-01-13T09:38:15.139Z,9.10
2019-01-13T09:40:55.311Z,9.00
2019-01-13T09:43:42.775Z,8.20
2019-01-13T09:46:23.556Z,9.30
2019-01-13T09:49:11.486Z,9.30
2019-01-13T09:51:51.663Z,8.50
2019-01-13T09:54:39.306Z,9.10
2019-01-13T09:57:19.988Z,8.90
2019-01-13T09:59:47.887Z,9.30
2019-01-13T10:02:29.018Z,9.40
2019-01-13T10:05:16.451Z,8.90
2019-01-13T10:07:56.989Z,9.00
2019-01-13T10:10:38.035Z,9.10
2019-01-13T10:13:25.467Z,9.20
2019-01-13T10:16:06.239Z,8.90
2019-01-13T10:18:47.301Z,9.00
2019-01-13T10:21:34.910Z,9.20
2019-01-13T10:24:15.780Z,9.30
2019-01-13T10:26:43.968Z,9.40
2019-01-13T10:29:24.515Z,8.70
2019-01-13T10:32:05.616Z,9.00
2019-01-13T10:34:53.024Z,8.20
2019-01-13T10:37:21.255Z,9.40
2019-01-13T10:39:49.599Z,9.30
2019-01-13T10:42:17.586Z,9.30
2019-01-13T10:44:45.875Z,9.30
2019-01-13T10:47:14.289Z,9.50
2019-01-13T10:49:55.253Z,8.70
2019-01-13T10:52:43.927Z,9.30
2019-01-13T10:55:26.791Z,8.80
2019-01-13T10:57:54.858Z,9.30
2019-01-13T11:00:44.735Z,9.50
2019-01-13T11:03:33.922Z,9.40
2019-01-13T11:06:15.202Z,9.40
2019-01-13T11:09:25.679Z,8.60
2019-01-13T11:12:06.154Z,8.50
2019-01-13T11:14:53.779Z,9.60
2019-01-13T11:17:34.248Z,9.40
2019-01-13T11:20:24.491Z,9.10
2019-01-13T11:23:05.438Z,9.30
2019-01-13T11:25:47.367Z,9.20
2019-01-13T11:28:32.505Z,9.10
2019-01-13T11:31:14.737Z,9.80
2019-01-13T11:34:02.248Z,9.90
2019-01-13T11:36:46.839Z,9.60
2019-01-13T11:39:34.586Z,9.80
2019-01-13T11:42:21.550Z,10.00
2019-01-13T11:45:04.530Z,10.10
2019-01-13T11:47:52.157Z,9.00
2019-01-13T11:50:32.593Z,9.80
2019-01-13T11:53:00.621Z,9.80
2019-01-13T11:55:28.961Z,9.90
2019-01-13T11:57:57.473Z,10.00
2019-01-13T12:00:40.481Z,10.00
2019-01-13T12:03:16.475Z,10.00
2019-01-13T12:05:40.776Z,10.00
2019-01-13T12:08:08.887Z,10.00
2019-01-13T12:10:37.281Z,9.80
2019-01-13T12:13:24.830Z,9.90
2019-01-13T12:15:52.881Z,10.00
2019-01-13T12:18:20.963Z,10.20
2019-01-13T12:20:49.161Z,10.10
2019-01-13T12:23:17.270Z,10.60
2019-01-13T12:25:52.333Z,10.20
2019-01-13T12:28:15.802Z,10.40
2019-01-13T12:30:56.612Z,10.40
2019-01-13T12:33:24.935Z,10.50
2019-01-13T12:36:05.315Z,10.50
2019-01-13T12:38:52.750Z,10.10
2019-01-13T12:41:33.267Z,10.10
2019-01-13T12:44:20.729Z,10.20
2019-01-13T12:47:01.554Z,10.30
2019-01-13T12:49:49.224Z,10.40
2019-01-13T12:52:29.523Z,10.30
2019-01-13T12:55:17.086Z,9.80
2019-01-13T12:57:57.724Z,10.40
2019-01-13T13:00:45.283Z,9.20
2019-01-13T13:03:24.142Z,10.50
2019-01-13T13:06:12.167Z,10.20
2019-01-13T13:08:53.080Z,9.70
2019-01-13T13:11:21.219Z,10.20
2019-01-13T13:13:49.365Z,10.30
2019-01-13T13:16:36.915Z,10.50
2019-01-13T13:19:17.892Z,10.30
2019-01-13T13:22:05.360Z,10.10
2019-01-13T13:24:45.663Z,10.20
2019-01-13T13:27:33.316Z,9.50
2019-01-13T13:30:15.366Z,10.50
2019-01-13T13:33:02.829Z,9.80
2019-01-13T13:35:43.660Z,10.40
2019-01-13T13:38:31.656Z,10.60
2019-01-13T13:41:10.289Z,10.50
2019-01-13T13:44:01.657Z,9.30
2019-01-13T13:46:42.030Z,10.40
2019-01-13T13:49:29.496Z,10.40
2019-01-13T13:51:57.560Z,10.70
2019-01-13T13:54:45.086Z,10.50
2019-01-13T13:57:25.586Z,10.20
2019-01-13T14:00:34.846Z,10.60
2019-01-13T14:03:16.912Z,10.60
2019-01-13T14:06:04.496Z,11.00
2019-01-13T14:08:45.308Z,10.20
2019-01-13T14:11:26.109Z,10.60
2019-01-13T14:14:06.204Z,10.40
2019-01-13T14:16:53.671Z,9.80
2019-01-13T14:19:35.006Z,10.80
2019-01-13T14:22:22.536Z,10.60
2019-01-13T14:25:03.768Z,10.60
2019-01-13T14:27:51.306Z,10.70
2019-01-13T14:30:23.534Z,10.70
2019-01-13T14:32:51.869Z,10.60
2019-01-13T14:35:20.150Z,10.70
2019-01-13T14:38:09.713Z,10.50
2019-01-13T14:40:50.288Z,9.80
2019-01-13T14:43:38.114Z,10.60
2019-01-13T14:46:18.316Z,10.70
2019-01-13T14:48:59.344Z,10.40
2019-01-13T14:51:47.040Z,10.50
2019-01-13T14:54:27.563Z,10.70
2019-01-13T14:56:55.543Z,10.70
2019-01-13T14:59:35.661Z,9.90
2019-01-13T15:02:23.160Z,11.10
2019-01-13T15:05:04.293Z,10.20
2019-01-13T15:07:32.391Z,10.80
2019-01-13T15:10:00.883Z,11.00
2019-01-13T15:12:28.955Z,11.00
2019-01-13T15:14:56.993Z,11.00
2019-01-13T15:17:25.088Z,10.80
2019-01-13T15:19:53.071Z,11.00
2019-01-13T15:22:21.194Z,11.00
2019-01-13T15:24:49.261Z,11.20
2019-01-13T15:27:17.366Z,11.10
2019-01-13T15:29:45.580Z,11.20
2019-01-13T15:32:13.795Z,11.20
2019-01-13T15:34:41.875Z,11.20
2019-01-13T15:37:10.068Z,11.10
2019-01-13T15:39:38.268Z,11.10
2019-01-13T15:42:06.566Z,11.10
2019-01-13T15:44:34.617Z,11.10
2019-01-13T15:47:02.679Z,11.10
2019-01-13T15:49:31.012Z,11.20
2019-01-13T15:52:02.055Z,11.20
2019-01-13T15:54:30.398Z,11.60
2019-01-13T15:56:59.961Z,11.30
2019-01-13T15:59:28.156Z,11.20
2019-01-13T16:01:56.360Z,11.40
2019-01-13T16:04:24.503Z,11.30
2019-01-13T16:06:52.650Z,11.30
2019-01-13T16:09:20.732Z,11.60
2019-01-13T16:11:48.776Z,11.30
2019-01-13T16:14:16.825Z,11.40
2019-01-13T16:16:44.979Z,11.30
2019-01-13T16:19:13.172Z,11.40
2019-01-13T16:21:41.324Z,11.60
2019-01-13T16:24:09.455Z,11.50
2019-01-13T16:26:37.546Z,11.70
2019-01-13T16:29:05.807Z,11.50
2019-01-13T16:31:34.158Z,11.60
2019-01-13T16:34:02.114Z,11.30
2019-01-13T16:36:30.431Z,11.40
2019-01-13T16:38:58.631Z,11.40
2019-01-13T16:41:26.749Z,11.50
2019-01-13T16:43:54.835Z,11.80
2019-01-13T16:46:23.834Z,11.90
2019-01-13T16:48:52.004Z,11.80
2019-01-13T16:51:20.163Z,11.60
2019-01-13T16:53:48.296Z,11.70
2019-01-13T16:56:16.415Z,11.60
2019-01-13T16:58:44.592Z,11.50
2019-01-13T17:01:13.084Z,11.40
2019-01-13T17:03:41.174Z,11.50
2019-01-13T17:06:09.588Z,11.70
2019-01-13T17:08:37.656Z,11.60
2019-01-13T17:11:05.721Z,11.40
2019-01-13T17:13:33.863Z,11.90
2019-01-13T17:16:02.050Z,11.70
2019-01-13T17:18:30.237Z,11.40
2019-01-13T17:20:58.286Z,11.50
2019-01-13T17:23:26.353Z,11.50
2019-01-13T17:25:54.439Z,11.90
2019-01-13T17:28:22.402Z,11.90
2019-01-13T17:30:50.630Z,12.00
2019-01-13T17:33:18.671Z,12.10
2019-01-13T17:35:46.731Z,11.60
2019-01-13T17:38:14.797Z,12.10
2019-01-13T17:40:42.879Z,11.80
2019-01-13T17:43:11.136Z,11.90
2019-01-13T17:45:39.146Z,12.20
2019-01-13T17:48:08.394Z,12.10
2019-01-13T17:50:36.582Z,11.90
2019-01-13T17:53:07.516Z,12.20
2019-01-13T17:55:35.545Z,12.10
2019-01-13T17:58:03.517Z,12.10
2019-01-13T18:00:58.875Z,12.20
2019-01-13T18:03:39.193Z,12.40
2019-01-13T18:06:07.303Z,12.20
2019-01-13T18:08:35.421Z,12.10
2019-01-13T18:11:03.778Z,11.80
2019-01-13T18:13:32.006Z,12.20
2019-01-13T18:16:00.200Z,12.00
2019-01-13T18:18:28.246Z,12.10
2019-01-13T18:20:56.416Z,12.00
2019-01-13T18:23:27.326Z,12.50
2019-01-13T18:25:55.516Z,12.40
2019-01-13T18:28:23.947Z,12.10
2019-01-13T18:30:52.256Z,12.40
2019-01-13T18:33:21.448Z,12.20
2019-01-13T18:35:49.554Z,12.00
2019-01-13T18:38:17.670Z,12.60
2019-01-13T18:40:45.718Z,12.40
2019-01-13T18:43:13.878Z,12.40
2019-01-13T18:45:42.002Z,12.10
2019-01-13T18:48:10.344Z,12.40
2019-01-13T18:50:38.714Z,12.50
2019-01-13T18:53:10.964Z,12.40
2019-01-13T18:55:39.151Z,12.40
2019-01-13T18:58:07.463Z,12.50
2019-01-13T19:00:35.817Z,12.10
2019-01-13T19:03:04.969Z,11.90
2019-01-13T19:05:33.187Z,11.90
2019-01-13T19:08:01.447Z,12.00
2019-01-13T19:10:41.716Z,11.50
2019-01-13T19:13:17.428Z,11.40
2019-01-13T19:15:47.696Z,11.70
2019-01-13T19:18:15.819Z,11.10
2019-01-13T19:20:43.982Z,11.20
2019-01-13T19:23:16.551Z,11.40
2019-01-13T19:25:44.803Z,11.40
2019-01-13T19:28:13.034Z,11.80
2019-01-13T19:30:41.115Z,11.60
2019-01-13T19:33:11.129Z,11.40
2019-01-13T19:35:39.384Z,11.80
2019-01-13T19:38:07.558Z,11.70
2019-01-13T19:40:35.792Z,12.10
2019-01-13T19:43:04.165Z,11.90
2019-01-13T19:45:32.660Z,11.70
2019-01-13T19:48:01.125Z,11.10
2019-01-13T19:50:29.404Z,11.20
2019-01-13T19:52:57.711Z,11.30
2019-01-13T19:55:25.987Z,10.80
2019-01-13T19:57:54.091Z,10.10
2019-01-13T20:00:29.325Z,9.90
2019-01-13T20:02:57.369Z,9.90
2019-01-13T20:05:25.705Z,10.00
2019-01-13T20:07:53.866Z,9.70
2019-01-13T20:10:22.213Z,10.10
2019-01-13T20:12:50.399Z,9.70
2019-01-13T20:15:18.757Z,10.10
2019-01-13T20:17:46.904Z,10.30
2019-01-13T20:20:15.316Z,10.30
2019-01-13T20:22:44.517Z,10.50
2019-01-13T20:25:12.792Z,10.80
2019-01-13T20:27:41.122Z,10.60
2019-01-13T20:30:15.947Z,10.80
2019-01-13T20:32:44.425Z,10.90
2019-01-13T20:35:19.191Z,10.60
2019-01-13T20:37:43.026Z,10.90
2019-01-13T20:40:12.108Z,10.50
2019-01-13T20:42:40.329Z,10.80
2019-01-13T20:45:13.624Z,10.60
2019-01-13T20:47:41.646Z,10.60
2019-01-13T20:50:11.977Z,10.10
2019-01-13T20:52:41.219Z,9.10
2019-01-13T20:55:10.755Z,8.40
2019-01-13T20:57:38.953Z,7.90
2019-01-13T21:00:14.581Z,8.10
2019-01-13T21:02:42.859Z,8.10
2019-01-13T21:05:11.234Z,8.10
2019-01-13T21:07:39.333Z,8.40
2019-01-13T21:10:09.907Z,8.60
2019-01-13T21:12:38.085Z,8.70
2019-01-13T21:15:09.574Z,8.90
2019-01-13T21:17:37.958Z,8.50
2019-01-13T21:20:06.240Z,8.70
2019-01-13T21:22:34.352Z,8.50
2019-01-13T21:25:02.382Z,8.80
2019-01-13T21:27:30.964Z,8.80
2019-01-13T21:30:01.717Z,8.60
2019-01-13T21:32:29.031Z,9.30
2019-01-13T21:34:57.353Z,8.70
2019-01-13T21:37:25.727Z,9.00
2019-01-13T21:39:53.936Z,9.00
2019-01-13T21:42:21.995Z,8.90
2019-01-13T21:44:50.131Z,9.00
2019-01-13T21:47:18.312Z,8.80
2019-01-13T21:49:46.443Z,9.10
2019-01-13T21:52:14.493Z,8.80
2019-01-13T21:54:42.719Z,9.00
2019-01-13T21:57:10.866Z,8.70
2019-01-13T21:59:38.899Z,9.10
2019-01-13T22:02:08.129Z,8.80
2019-01-13T22:04:36.200Z,9.00
2019-01-13T22:07:04.818Z,8.80
2019-01-13T22:09:32.936Z,8.80
2019-01-13T22:12:00.943Z,8.80
2019-01-13T22:14:28.979Z,8.90
2019-01-13T22:16:57.092Z,9.20
2019-01-13T22:19:25.116Z,9.30
2019-01-13T22:21:53.227Z,9.40
2019-01-13T22:24:21.600Z,9.30
2019-01-13T22:26:49.946Z,9.20
2019-01-13T22:29:18.049Z,9.80
2019-01-13T22:31:46.185Z,9.10
2019-01-13T22:34:14.172Z,9.50
2019-01-13T22:36:42.215Z,9.60
2019-01-13T22:39:10.316Z,9.50
2019-01-13T22:41:38.325Z,9.60
2019-01-13T22:44:06.354Z,9.60
2019-01-13T22:46:34.417Z,10.00
2019-01-13T22:49:02.849Z,9.60
2019-01-13T22:51:30.855Z,9.60
2019-01-13T22:53:59.101Z,9.90
2019-01-13T22:56:27.049Z,9.80
2019-01-13T22:58:55.095Z,9.90
2019-01-13T23:01:34.172Z,10.10
2019-01-13T23:04:17.060Z,10.00
2019-01-13T23:06:45.157Z,9.90
2019-01-13T23:09:13.165Z,10.10
2019-01-13T23:11:41.115Z,10.20
2019-01-13T23:14:12.181Z,10.00
2019-01-13T23:16:40.401Z,9.70
2019-01-13T23:19:08.631Z,9.40
2019-01-13T23:21:36.589Z,10.00
2019-01-13T23:24:04.630Z,10.10
2019-01-13T23:26:32.705Z,9.90
2019-01-13T23:29:00.825Z,10.30
2019-01-13T23:31:28.922Z,10.40
2019-01-13T23:33:56.900Z,10.30
2019-01-13T23:36:24.813Z,10.40
2019-01-13T23:38:52.781Z,10.60
2019-01-13T23:41:20.852Z,10.80
2019-01-13T23:43:48.823Z,10.20
2019-01-13T23:46:16.754Z,10.70
2019-01-13T23:48:44.734Z,11.10
2019-01-13T23:51:12.807Z,11.30
2019-01-13T23:53:40.732Z,11.20
2019-01-13T23:56:08.644Z,10.80
2019-01-13T23:58:36.670Z,11.00
